Aérodrome :
LOGIN :

S'inscrire | Disclaimer

   EN    FR    IT 

 










Légende :    VFR   VFR Marginal   IFR   IFR Intensif   IFR Très Intensif
Visi : 
Plafond : 
>= 8 km
>= 3000ft
5 à 8 km
1000 à 3000 ft
1500m à 5 km
500 à 1000 ft
800 à 1500m
200 à 500 ft
< 800m
< 200 ft
Symboles :   Orages  Brouillard  Fortes neiges  Fortes précipitations  Vent > 20 kt
SIGMETs :   Divers  Orages  Givrage  Turbulence  Onde Orograph.  Cendres Volcan.






- Altitude de l'aérodrome : 1302 ft
- Code IATA : GNB


LFLS - Grenoble / St. Geoirs

DERNIER METAR :
  • 282130Z AUTO 15003KT 100V220 CAVOK 17/09 Q1021

METARs EXPIRÉS :
  • 282100Z AUTO 11003KT 070V150 CAVOK 18/09 Q1021
  • 282030Z AUTO 35003KT 320V040 CAVOK 18/08 Q1021
  • 282000Z AUTO VRB02KT CAVOK 18/09 Q1022
  • 281930Z AUTO 34006KT CAVOK 19/09 Q1021 NOSIG
  • 281900Z AUTO 34008KT CAVOK 20/09 Q1021 NOSIG

TAF TAF LFLS
Valide du 28 à 15h jusqu'au 29 à 15h UTC


281400Z 2815/2915 VRB02KT CAVOK
TEMPO 2815/2821 36008KT
BECMG 2907/2909 03006KT
ATIS : +33 4 76 65 55 89



MET'MAP, la Météo Aéronautique d'un coup d'oeil ! - Copyright ORBIFLY Décembre 2007 - Disclaimer

ORBIFLY MET'MAP TEAM :

Programmation & Développement : Alexandra Zaïnal
Sur une idée originale de : Baudouin d'Aumeries
Assistance à la programmation : Marc-Olivier Méhu
Soutien technique & logistique : Manuel Goepfert

Contact : metmap@orbifly.com




SOURCES & CREDITS :

   NOAA